Time;durP1;ratioP1;P1;durP2;ratioP2;P2;SDS_P1;SDS_P2;PMS_P1;PMS_P2;Temp;Humidity;BMP_temperature;BMP_pressure;BME280_temperature;BME280_humidity;BME280_pressure;Samples;Min_cycle;Max_cycle;Signal;HPM_P1;HPM_P2
2023/03/31 00:02:22;;;;;;;;;;;;;;;29.50;64.00;100958.50;5078156;27;70267;-44
2023/03/31 00:04:52;;;;;;;;;;;;;;;29.54;63.57;100967.88;5074605;27;66471;-42
2023/03/31 00:07:22;;;;;;;;;;;;;;;29.55;63.33;100964.94;5077605;27;70387;-43
2023/03/31 00:09:56;;;;;;;;;;;;;;;29.58;62.49;100974.50;5072644;28;66627;-44
2023/03/31 00:12:45;;;;;;;;;;;;;;;29.61;62.46;100984.88;5050119;27;69279;-44
2023/03/31 00:15:16;;;;;;;;;;;;;;;29.63;61.86;100982.84;5069781;28;66056;-44
2023/03/31 00:17:46;;;;;;;;;;;;;;;29.66;61.61;100984.31;5060189;27;68937;-46
2023/03/31 00:20:16;;;;;;;;;;;;;;;29.67;61.23;100989.53;5079964;27;66012;-43
2023/03/31 00:22:46;;;;;;;;;;;;;;;29.69;61.18;100992.81;5077603;27;69489;-43
2023/03/31 00:25:17;;;;;;;;;;;;;;;29.71;61.25;100990.75;5065845;28;67171;-43
2023/03/31 00:27:49;;;;;;;;;;;;;;;29.72;61.38;100992.41;5072550;28;70314;-43
2023/03/31 00:30:19;;;;;;;;;;;;;;;29.74;61.12;100994.91;5096411;27;66616;-44
2023/03/31 00:32:50;;;;;;;;;;;;;;;29.76;60.79;100998.25;5056233;28;70003;-44
2023/03/31 00:35:21;;;;;;;;;;;;;;;29.78;61.18;101001.53;5060429;27;66296;-43
2023/03/31 00:37:52;;;;;;;;;;;;;;;29.79;60.60;101009.47;5061720;28;71142;-43
2023/03/31 00:40:23;;;;;;;;;;;;;;;29.80;61.08;101011.09;5074587;27;66783;-44
2023/03/31 00:42:53;;;;;;;;;;;;;;;29.82;60.86;101009.03;5078509;27;69799;-43
2023/03/31 00:45:26;;;;;;;;;;;;;;;29.83;60.87;101013.38;5078455;27;66520;-42
2023/03/31 00:48:03;;;;;;;;;;;;;;;29.84;60.31;101023.19;5086878;27;70473;-42
2023/03/31 00:50:40;;;;;;;;;;;;;;;29.86;60.13;101030.25;5078797;27;67098;-44
2023/03/31 00:53:12;;;;;;;;;;;;;;;29.90;60.48;101036.91;5047205;28;69713;-43
2023/03/31 00:55:46;;;;;;;;;;;;;;;29.91;60.56;101047.50;5075056;28;66461;-43
2023/03/31 00:58:21;;;;;;;;;;;;;;;29.90;60.15;101056.66;5048244;28;63720;-42
2023/03/31 01:00:52;;;;;;;;;;;;;;;29.94;60.31;101060.59;5075586;27;65652;-44
2023/03/31 01:03:24;;;;;;;;;;;;;;;29.95;59.98;101056.88;5059288;28;70134;-44
2023/03/31 01:05:56;;;;;;;;;;;;;;;29.96;59.82;101053.13;5078222;27;66190;-43
2023/03/31 01:08:27;;;;;;;;;;;;;;;29.98;59.59;101056.47;5078727;27;69824;-43
2023/03/31 01:11:03;;;;;;;;;;;;;;;30.00;59.75;101054.34;5073858;27;66186;-43
2023/03/31 01:13:37;;;;;;;;;;;;;;;30.01;59.64;101060.63;5082672;27;70265;-43
2023/03/31 01:16:09;;;;;;;;;;;;;;;30.03;59.39;101061.22;5068038;27;65922;-42
2023/03/31 01:18:45;;;;;;;;;;;;;;;30.05;59.87;101061.84;5076106;27;70409;-43
2023/03/31 01:21:36;;;;;;;;;;;;;;;30.06;59.30;101064.34;5074073;28;66396;-43
2023/03/31 01:24:09;;;;;;;;;;;;;;;30.09;59.52;101073.94;5073180;27;69858;-42
2023/03/31 01:26:58;;;;;;;;;;;;;;;30.09;59.27;101073.94;5093339;27;66047;-42
2023/03/31 01:29:40;;;;;;;;;;;;;;;30.13;59.22;101085.97;5070473;27;69931;-42
2023/03/31 01:32:10;;;;;;;;;;;;;;;30.15;59.04;101077.66;5061914;27;66130;-42
2023/03/31 01:34:59;;;;;;;;;;;;;;;30.15;59.11;101078.50;5074832;28;68511;-43
2023/03/31 01:37:55;;;;;;;;;;;;;;;30.18;58.94;101083.47;5071050;27;66427;-42
2023/03/31 01:40:25;;;;;;;;;;;;;;;30.21;58.84;101084.94;5081914;27;69020;-42
2023/03/31 01:43:05;;;;;;;;;;;;;;;30.22;59.37;101083.91;5082689;27;65981;-46
2023/03/31 01:45:35;;;;;;;;;;;;;;;30.24;59.01;101088.06;5060701;28;69898;-42
2023/03/31 01:48:17;;;;;;;;;;;;;;;30.26;58.89;101083.28;5083106;27;66932;-43
2023/03/31 01:50:58;;;;;;;;;;;;;;;30.28;59.04;101085.75;5078461;27;69723;-43
2023/03/31 01:53:32;;;;;;;;;;;;;;;30.31;59.17;101082.63;5081989;27;65552;-42
2023/03/31 01:56:09;;;;;;;;;;;;;;;30.33;59.08;101087.84;5046463;28;69785;-42
2023/03/31 01:58:48;;;;;;;;;;;;;;;30.34;58.46;101084.09;5063940;28;66326;-42
2023/03/31 02:01:19;;;;;;;;;;;;;;;30.37;58.98;101087.22;5063313;27;69833;-43
2023/03/31 02:04:10;;;;;;;;;;;;;;;30.40;59.00;101085.97;5080777;28;66173;-42
2023/03/31 02:06:42;;;;;;;;;;;;;;;30.42;58.82;101094.69;5081862;28;69903;-45
2023/03/31 02:09:15;;;;;;;;;;;;;;;30.44;58.59;101098.00;5080752;27;65903;-42
2023/03/31 02:11:47;;;;;;;;;;;;;;;30.46;58.23;101098.66;5086537;27;70455;-43
2023/03/31 02:14:20;;;;;;;;;;;;;;;30.48;58.43;101099.28;5059464;27;66466;-45
2023/03/31 02:16:57;;;;;;;;;;;;;;;30.50;58.34;101097.16;5083186;27;69928;-43
2023/03/31 02:19:30;;;;;;;;;;;;;;;30.53;58.58;101102.16;5079241;27;67890;-42
2023/03/31 02:22:02;;;;;;;;;;;;;;;30.55;58.23;101091.94;5080196;27;69608;-45
2023/03/31 02:24:33;;;;;;;;;;;;;;;30.58;58.34;101086.09;5063206;28;65759;-43
2023/03/31 02:27:07;;;;;;;;;;;;;;;30.59;58.22;101085.06;5078108;27;70903;-43
2023/03/31 02:29:37;;;;;;;;;;;;;;;30.62;58.13;101094.63;5064286;28;66266;-43
2023/03/31 02:32:12;;;;;;;;;;;;;;;30.64;58.19;101101.47;5075416;27;69683;-43
2023/03/31 02:34:42;;;;;;;;;;;;;;;30.66;57.87;101096.69;5079472;27;66411;-43
2023/03/31 02:37:13;;;;;;;;;;;;;;;30.68;58.42;101108.16;5071648;27;69211;-42
2023/03/31 02:39:47;;;;;;;;;;;;;;;30.71;58.09;101104.19;5063357;28;66643;-43
2023/03/31 02:42:18;;;;;;;;;;;;;;;30.72;58.24;101106.66;5080264;27;68728;-44
2023/03/31 02:44:50;;;;;;;;;;;;;;;30.75;57.68;101110.81;5072044;27;66278;-42
2023/03/31 02:47:21;;;;;;;;;;;;;;;30.78;57.97;101098.72;5078895;27;68905;-44
2023/03/31 02:49:53;;;;;;;;;;;;;;;30.80;58.20;101104.81;5088745;27;66867;-43
2023/03/31 02:52:32;;;;;;;;;;;;;;;30.82;57.60;101097.31;5080342;27;69451;-42
2023/03/31 02:55:15;;;;;;;;;;;;;;;30.85;57.53;101096.88;5062592;28;66593;-42
2023/03/31 02:57:45;;;;;;;;;;;;;;;30.87;57.91;101092.06;5064461;28;69697;-42
2023/03/31 03:00:23;;;;;;;;;;;;;;;30.90;57.70;101097.06;5048411;28;65708;-42
2023/03/31 03:03:04;;;;;;;;;;;;;;;30.92;57.76;101095.81;5070418;27;70074;-43
2023/03/31 03:05:37;;;;;;;;;;;;;;;30.95;57.76;101083.69;5055455;28;67120;-42
2023/03/31 03:08:35;;;;;;;;;;;;;;;30.99;58.07;101073.25;5081161;28;70699;-43
2023/03/31 03:11:21;;;;;;;;;;;;;;;31.00;58.04;101072.22;5048438;27;66061;-45
2023/03/31 03:14:00;;;;;;;;;;;;;;;31.02;57.84;101078.25;5063393;28;70011;-44
2023/03/31 03:16:34;;;;;;;;;;;;;;;31.05;57.38;101075.94;5079392;28;66904;-46
2023/03/31 03:19:05;;;;;;;;;;;;;;;31.08;57.39;101074.66;5079509;27;70158;-45
2023/03/31 03:21:35;;;;;;;;;;;;;;;31.10;57.42;101065.28;5063007;28;65878;-44
2023/03/31 03:24:06;;;;;;;;;;;;;;;31.12;57.79;101067.75;5079356;27;69194;-42
2023/03/31 03:26:36;;;;;;;;;;;;;;;31.15;57.44;101061.91;5081710;27;66561;-43
2023/03/31 03:29:06;;;;;;;;;;;;;;;31.19;57.44;101065.03;5093172;27;70414;-47
2023/03/31 03:31:37;;;;;;;;;;;;;;;31.22;57.75;101062.69;5074259;28;65838;-44
2023/03/31 03:34:08;;;;;;;;;;;;;;;31.24;57.32;101059.78;5078569;27;69278;-44
2023/03/31 03:36:39;;;;;;;;;;;;;;;31.26;57.71;101063.06;5081027;27;66802;-41
2023/03/31 03:39:09;;;;;;;;;;;;;;;31.28;57.67;101061.81;5080495;27;70590;-44
2023/03/31 03:41:39;;;;;;;;;;;;;;;31.31;57.52;101057.84;5074521;27;66608;-43
2023/03/31 03:44:09;;;;;;;;;;;;;;;31.34;57.06;101054.69;5078823;27;69766;-43
2023/03/31 03:46:40;;;;;;;;;;;;;;;31.37;57.19;101056.97;5075245;27;65412;-43
2023/03/31 03:49:10;;;;;;;;;;;;;;;31.38;57.04;101053.25;5078008;27;70957;-42
2023/03/31 03:51:41;;;;;;;;;;;;;;;31.41;57.16;101055.50;5071532;27;66634;-42
2023/03/31 03:54:11;;;;;;;;;;;;;;;31.43;57.37;101064.25;5076396;27;70537;-44
2023/03/31 03:56:41;;;;;;;;;;;;;;;31.45;57.23;101056.72;5080531;27;66454;-44
2023/03/31 03:59:11;;;;;;;;;;;;;;;31.49;57.21;101047.09;5077770;27;69887;-43
2023/03/31 04:01:42;;;;;;;;;;;;;;;31.51;57.02;101050.44;5080207;27;66961;-43
2023/03/31 04:04:12;;;;;;;;;;;;;;;31.54;57.20;101049.16;5081147;27;69725;-43
2023/03/31 04:06:42;;;;;;;;;;;;;;;31.57;56.98;101033.28;5079813;27;66393;-44
2023/03/31 04:09:13;;;;;;;;;;;;;;;31.58;56.99;101034.94;5080241;27;70277;-45
2023/03/31 04:11:43;;;;;;;;;;;;;;;31.59;57.06;101028.47;5078567;27;66579;-43
2023/03/31 04:14:13;;;;;;;;;;;;;;;31.61;56.73;101018.22;5078170;27;69704;-44
2023/03/31 04:16:45;;;;;;;;;;;;;;;31.64;56.72;101018.81;5080578;27;65653;-43
2023/03/31 04:19:16;;;;;;;;;;;;;;;31.67;56.32;101012.97;5079329;27;69868;-44
2023/03/31 04:21:49;;;;;;;;;;;;;;;31.69;56.75;101008.97;5076671;27;66705;-44
2023/03/31 04:24:20;;;;;;;;;;;;;;;31.72;56.67;100999.56;5077551;27;70189;-43
2023/03/31 04:26:51;;;;;;;;;;;;;;;31.73;56.41;101003.91;5080045;27;66623;-44
2023/03/31 04:29:25;;;;;;;;;;;;;;;31.75;56.24;100999.13;5075407;27;69750;-44
2023/03/31 04:31:58;;;;;;;;;;;;;;;31.76;56.13;100988.06;5073276;27;66514;-43
2023/03/31 04:34:35;;;;;;;;;;;;;;;31.79;56.03;100989.50;5062968;27;69584;-44
2023/03/31 04:37:09;;;;;;;;;;;;;;;31.82;55.75;100980.91;5078180;27;66155;-43
2023/03/31 04:39:40;;;;;;;;;;;;;;;31.85;55.68;100987.75;5079614;27;68579;-42
2023/03/31 04:42:10;;;;;;;;;;;;;;;31.85;55.83;100972.31;5075658;27;66945;-44
2023/03/31 04:44:40;;;;;;;;;;;;;;;31.87;55.65;100977.50;5079549;27;70746;-43
2023/03/31 04:47:10;;;;;;;;;;;;;;;31.88;55.91;100968.31;5078106;27;66453;-44
2023/03/31 04:49:40;;;;;;;;;;;;;;;31.89;55.88;100968.09;5078557;27;72312;-43
2023/03/31 04:52:10;;;;;;;;;;;;;;;31.89;55.78;100954.53;5079126;27;65130;-47
2023/03/31 04:54:40;;;;;;;;;;;;;;;31.91;55.77;100951.59;5080895;27;69345;-44
2023/03/31 04:57:10;;;;;;;;;;;;;;;31.93;56.00;100944.06;5076837;27;65838;-43
2023/03/31 04:59:41;;;;;;;;;;;;;;;31.94;55.54;100933.00;5079598;27;69340;-44
2023/03/31 05:02:11;;;;;;;;;;;;;;;31.94;55.78;100941.13;5079726;27;66550;-44
2023/03/31 05:04:41;;;;;;;;;;;;;;;31.96;55.84;100930.91;5079811;27;70425;-43
2023/03/31 05:07:11;;;;;;;;;;;;;;;31.98;55.76;100920.66;5081251;27;66194;-45
2023/03/31 05:09:41;;;;;;;;;;;;;;;31.99;55.77;100918.75;5075855;27;69841;-42
2023/03/31 05:12:12;;;;;;;;;;;;;;;32.01;56.09;100911.22;5077035;27;66204;-44
2023/03/31 05:14:42;;;;;;;;;;;;;;;32.02;55.58;100911.00;5080120;27;70084;-43
2023/03/31 05:17:12;;;;;;;;;;;;;;;32.04;55.73;100908.88;5078718;27;65832;-44
2023/03/31 05:19:42;;;;;;;;;;;;;;;32.07;55.65;100906.75;5060411;28;69495;-44
2023/03/31 05:22:13;;;;;;;;;;;;;;;32.10;55.49;100903.63;5077540;27;67006;-46
2023/03/31 05:24:43;;;;;;;;;;;;;;;32.12;55.44;100893.34;5077965;27;70224;-43
2023/03/31 05:27:13;;;;;;;;;;;;;;;32.14;55.34;100896.66;5077473;27;65651;-43
2023/03/31 05:29:43;;;;;;;;;;;;;;;32.17;55.35;100890.78;5078607;27;70052;-44
2023/03/31 05:32:14;;;;;;;;;;;;;;;32.19;55.38;100883.22;5076001;27;66343;-44
2023/03/31 05:34:45;;;;;;;;;;;;;;;32.21;55.42;100875.69;5053635;28;69289;-42
2023/03/31 05:37:18;;;;;;;;;;;;;;;32.23;55.34;100879.00;5078449;28;67182;-44
2023/03/31 05:39:48;;;;;;;;;;;;;;;32.25;55.14;100872.28;5077366;27;69273;-43
2023/03/31 05:42:19;;;;;;;;;;;;;;;32.27;55.21;100864.75;5078102;28;65466;-46
2023/03/31 05:44:49;;;;;;;;;;;;;;;32.30;55.15;100873.50;5060107;28;69914;-47
2023/03/31 05:47:19;;;;;;;;;;;;;;;32.31;55.17;100859.66;5078487;27;66990;-43
2023/03/31 05:49:50;;;;;;;;;;;;;;;32.34;55.19;100858.38;5079436;27;70254;-44
2023/03/31 05:52:20;;;;;;;;;;;;;;;32.36;55.06;100857.09;5076875;27;65731;-45
2023/03/31 05:54:50;;;;;;;;;;;;;;;32.39;54.89;100851.19;5076368;27;70308;-45
2023/03/31 05:57:20;;;;;;;;;;;;;;;32.41;54.88;100843.66;5078165;27;67090;-44
2023/03/31 05:59:51;;;;;;;;;;;;;;;32.44;54.88;100842.38;5077379;27;69925;-44
2023/03/31 06:02:21;;;;;;;;;;;;;;;32.46;55.10;100824.81;5075195;28;66404;-46
2023/03/31 06:04:52;;;;;;;;;;;;;;;32.49;54.70;100824.34;5076886;27;69553;-43
2023/03/31 06:07:23;;;;;;;;;;;;;;;32.53;54.80;100822.00;5057206;28;66744;-47
2023/03/31 06:09:54;;;;;;;;;;;;;;;32.57;54.66;100816.91;5076112;28;69708;-44
2023/03/31 06:12:25;;;;;;;;;;;;;;;32.59;54.43;100814.81;5073284;27;66962;-47
2023/03/31 06:14:55;;;;;;;;;;;;;;;32.62;54.39;100811.63;5073817;27;69978;-43
2023/03/31 06:17:25;;;;;;;;;;;;;;;32.65;54.69;100805.72;5074832;27;67105;-45
2023/03/31 06:19:55;;;;;;;;;;;;;;;32.68;54.47;100788.94;5075013;27;69324;-44
2023/03/31 06:22:26;;;;;;;;;;;;;;;32.71;54.52;100783.06;5073733;27;66162;-42
2023/03/31 06:24:56;;;;;;;;;;;;;;;32.74;54.20;100777.16;5074162;27;70000;-43
2023/03/31 06:27:27;;;;;;;;;;;;;;;32.77;54.38;100771.25;5076044;27;66629;-43
2023/03/31 06:29:57;;;;;;;;;;;;;;;32.81;54.58;100771.59;5052111;28;68292;-45
2023/03/31 06:32:27;;;;;;;;;;;;;;;32.84;53.97;100766.50;5077589;28;66245;-42
2023/03/31 06:34:57;;;;;;;;;;;;;;;32.87;54.33;100755.16;5079378;27;69312;-45
2023/03/31 06:37:27;;;;;;;;;;;;;;;32.90;54.07;100743.84;5077549;27;66566;-44
2023/03/31 06:39:57;;;;;;;;;;;;;;;32.94;54.00;100742.31;5077535;27;69547;-43
2023/03/31 06:42:27;;;;;;;;;;;;;;;32.98;54.20;100734.50;5077141;28;67609;-43
2023/03/31 06:44:58;;;;;;;;;;;;;;;33.03;54.13;100733.81;5075961;27;70291;-42
2023/03/31 06:47:28;;;;;;;;;;;;;;;33.06;54.15;100726.00;5075459;28;66755;-43
2023/03/31 06:49:59;;;;;;;;;;;;;;;33.10;53.95;100723.66;5079821;27;69668;-45
2023/03/31 06:52:30;;;;;;;;;;;;;;;33.13;53.88;100709.59;5072358;27;65952;-42
2023/03/31 06:55:00;;;;;;;;;;;;;;;33.18;53.59;100695.25;5070236;27;70118;-43
2023/03/31 06:57:32;;;;;;;;;;;;;;;33.20;53.62;100693.94;5062087;28;66041;-43
2023/03/31 07:00:04;;;;;;;;;;;;;;;33.10;53.74;100661.16;5070474;27;70247;-45
2023/03/31 07:02:35;;;;;;;;;;;;;;;33.28;53.66;100690.03;5078656;27;66664;-44
2023/03/31 07:05:06;;;;;;;;;;;;;;;33.31;53.65;100678.69;5077337;27;70218;-46
2023/03/31 07:07:36;;;;;;;;;;;;;;;33.33;53.69;100674.66;5079589;27;64596;-43
2023/03/31 07:10:06;;;;;;;;;;;;;;;33.35;53.74;100675.25;5080023;27;70601;-43
2023/03/31 07:12:37;;;;;;;;;;;;;;;33.40;53.37;100665.53;5079559;27;65110;-46
2023/03/31 07:15:07;;;;;;;;;;;;;;;33.41;53.31;100656.31;5070149;28;69767;-45
2023/03/31 07:17:40;;;;;;;;;;;;;;;33.43;53.22;100644.09;5077943;27;66740;-43
2023/03/31 07:20:14;;;;;;;;;;;;;;;33.47;53.43;100648.00;5079673;27;70802;-43
2023/03/31 07:22:45;;;;;;;;;;;;;;;33.50;53.16;100649.41;5078812;27;66801;-43
2023/03/31 07:25:16;;;;;;;;;;;;;;;33.52;52.99;100644.56;5077437;27;70727;-44
2023/03/31 07:27:47;;;;;;;;;;;;;;;33.56;53.09;100637.56;5079263;27;65172;-43
2023/03/31 07:30:18;;;;;;;;;;;;;;;33.59;53.04;100642.53;5063284;28;69852;-43
2023/03/31 07:32:50;;;;;;;;;;;;;;;33.63;53.13;100642.84;5081285;27;65705;-43
2023/03/31 07:35:21;;;;;;;;;;;;;;;33.66;53.02;100632.34;5057713;27;69924;-44
2023/03/31 07:37:51;;;;;;;;;;;;;;;33.69;52.61;100631.84;5080734;27;66096;-44
2023/03/31 07:40:24;;;;;;;;;;;;;;;33.71;52.77;100624.25;5080679;27;70559;-44
2023/03/31 07:42:54;;;;;;;;;;;;;;;33.75;52.67;100619.16;5078958;27;65996;-44
2023/03/31 07:45:25;;;;;;;;;;;;;;;33.77;52.50;100617.84;5072863;27;70634;-44
2023/03/31 07:47:55;;;;;;;;;;;;;;;33.81;52.42;100618.97;5070274;27;66633;-43
2023/03/31 07:50:26;;;;;;;;;;;;;;;33.85;52.39;100613.03;5059583;28;70154;-43
2023/03/31 07:52:58;;;;;;;;;;;;;;;33.89;52.45;100608.75;5058700;28;66998;-43
2023/03/31 07:55:29;;;;;;;;;;;;;;;33.91;52.19;100606.63;5052265;28;69960;-44
2023/03/31 07:57:59;;;;;;;;;;;;;;;33.94;52.40;100606.94;5057857;28;65835;-43
2023/03/31 08:00:30;;;;;;;;;;;;;;;33.97;52.14;100608.34;5056777;28;70717;-47
2023/03/31 08:03:00;;;;;;;;;;;;;;;33.82;51.93;100570.81;5053192;28;66168;-42
2023/03/31 08:05:31;;;;;;;;;;;;;;;34.03;52.28;100593.75;5058456;28;70252;-44
2023/03/31 08:08:01;;;;;;;;;;;;;;;34.08;51.79;100596.59;5060921;28;65446;-43
2023/03/31 08:10:31;;;;;;;;;;;;;;;34.11;52.31;100585.19;5054071;28;70014;-43
2023/03/31 08:13:01;;;;;;;;;;;;;;;34.15;52.07;100582.78;5057079;28;66416;-45
2023/03/31 08:15:31;;;;;;;;;;;;;;;34.18;51.74;100577.66;5055888;28;69397;-43
2023/03/31 08:18:02;;;;;;;;;;;;;;;34.22;52.12;100584.25;5059000;28;65931;-43
2023/03/31 08:20:32;;;;;;;;;;;;;;;34.24;51.96;100579.41;5071261;27;69357;-45
2023/03/31 08:23:04;;;;;;;;;;;;;;;34.29;51.95;100581.34;5057701;28;66148;-44
2023/03/31 08:25:35;;;;;;;;;;;;;;;34.35;51.39;100584.97;5047744;28;70132;-44
2023/03/31 08:28:05;;;;;;;;;;;;;;;34.37;51.36;100577.38;5055902;28;65787;-44
2023/03/31 08:30:39;;;;;;;;;;;;;;;34.42;51.78;100577.47;5056249;28;69987;-45
2023/03/31 08:33:13;;;;;;;;;;;;;;;34.46;51.60;100575.88;5055236;28;65225;-44
2023/03/31 08:35:43;;;;;;;;;;;;;;;34.50;51.51;100577.03;5053579;28;69668;-45
2023/03/31 08:38:13;;;;;;;;;;;;;;;34.53;51.32;100575.69;5054725;28;65636;-43
2023/03/31 08:40:43;;;;;;;;;;;;;;;34.56;51.13;100561.59;5054489;28;70299;-44
2023/03/31 08:43:18;;;;;;;;;;;;;;;34.60;50.97;100560.84;5053593;28;66811;-44
2023/03/31 08:45:48;;;;;;;;;;;;;;;34.63;51.01;100564.94;5054684;28;69174;-43
2023/03/31 08:48:28;;;;;;;;;;;;;;;34.67;50.87;100556.03;5054349;28;66243;-43
2023/03/31 08:51:02;;;;;;;;;;;;;;;34.70;50.67;100558.22;5055074;28;70605;-43
2023/03/31 08:53:42;;;;;;;;;;;;;;;34.74;50.87;100547.63;5056273;28;65799;-42
2023/03/31 08:56:18;;;;;;;;;;;;;;;34.80;50.94;100545.78;5055652;28;70341;-43
2023/03/31 08:58:49;;;;;;;;;;;;;;;34.84;51.05;100541.50;5050180;27;66625;-42
2023/03/31 09:01:38;;;;;;;;;;;;;;;34.85;50.51;100534.97;5058795;28;69775;-44
2023/03/31 09:04:28;;;;;;;;;;;;;;;34.90;50.62;100535.03;5059028;28;66456;-44
2023/03/31 09:07:16;;;;;;;;;;;;;;;34.94;50.79;100536.16;5059615;28;70035;-43
2023/03/31 09:10:02;;;;;;;;;;;;;;;34.97;50.31;100543.81;5059157;28;66667;-42
2023/03/31 09:12:39;;;;;;;;;;;;;;;35.01;50.77;100539.50;5054631;28;69369;-44
2023/03/31 09:15:16;;;;;;;;;;;;;;;35.05;50.61;100539.78;5059038;28;65927;-43
2023/03/31 09:17:50;;;;;;;;;;;;;;;35.08;50.50;100534.72;5054790;28;70753;-45
2023/03/31 09:20:30;;;;;;;;;;;;;;;35.12;50.38;100535.81;5058098;28;66770;-47
2023/03/31 09:23:04;;;;;;;;;;;;;;;35.18;50.38;100533.16;5055882;28;69826;-43
2023/03/31 09:25:37;;;;;;;;;;;;;;;35.17;50.43;100536.97;5056773;28;66800;-44
2023/03/31 09:28:18;;;;;;;;;;;;;;;35.21;49.91;100535.34;5054383;28;69609;-47
2023/03/31 09:30:49;;;;;;;;;;;;;;;35.23;50.16;100535.94;5063716;28;65699;-43
2023/03/31 09:33:30;;;;;;;;;;;;;;;35.25;49.51;100537.31;5042803;28;69821;-44
2023/03/31 09:36:02;;;;;;;;;;;;;;;35.26;49.71;100536.22;5058359;27;67005;-43
2023/03/31 09:38:32;;;;;;;;;;;;;;;35.28;50.03;100538.72;5058243;28;70349;-45
2023/03/31 09:41:04;;;;;;;;;;;;;;;35.29;49.58;100540.34;5058223;28;66489;-44
2023/03/31 09:43:34;;;;;;;;;;;;;;;35.29;49.94;100537.63;5057422;28;69172;-44
2023/03/31 09:46:12;;;;;;;;;;;;;;;35.31;49.94;100538.19;5055359;28;65890;-44
2023/03/31 09:48:49;;;;;;;;;;;;;;;35.30;49.88;100537.38;5055764;27;69435;-43
2023/03/31 09:51:25;;;;;;;;;;;;;;;35.30;49.56;100541.97;5052741;27;66912;-45
2023/03/31 09:53:58;;;;;;;;;;;;;;;35.30;49.43;100552.88;5077338;27;69504;-45
2023/03/31 09:56:49;;;;;;;;;;;;;;;35.27;49.41;100556.97;5056553;27;66522;-43
2023/03/31 09:59:29;;;;;;;;;;;;;;;35.27;50.01;100558.84;5076940;27;69330;-43
2023/03/31 10:02:01;;;;;;;;;;;;;;;35.27;50.09;100556.13;5076163;27;66002;-45
2023/03/31 10:04:33;;;;;;;;;;;;;;;35.24;50.02;100565.66;5078110;28;70810;-44
2023/03/31 10:07:04;;;;;;;;;;;;;;;35.24;49.38;100564.84;5076509;27;65668;-43
2023/03/31 10:09:37;;;;;;;;;;;;;;;35.23;50.04;100571.38;5077787;27;69891;-43
2023/03/31 10:12:15;;;;;;;;;;;;;;;35.21;49.85;100560.72;5076049;28;65354;-45
2023/03/31 10:14:49;;;;;;;;;;;;;;;35.21;49.60;100565.34;5076936;27;70267;-42
2023/03/31 10:17:21;;;;;;;;;;;;;;;35.17;49.92;100564.22;5079196;27;65605;-45
2023/03/31 10:19:53;;;;;;;;;;;;;;;35.16;49.75;100568.03;5077486;27;70535;-44
2023/03/31 10:22:23;;;;;;;;;;;;;;;35.16;50.15;100573.47;5077956;27;65740;-48
2023/03/31 10:24:54;;;;;;;;;;;;;;;35.13;49.71;100570.19;5075578;27;69709;-49
2023/03/31 10:27:26;;;;;;;;;;;;;;;35.12;50.26;100574.00;5076982;27;65272;-47
2023/03/31 10:30:04;;;;;;;;;;;;;;;35.09;50.19;100582.69;5076524;27;70277;-43
2023/03/31 10:32:39;;;;;;;;;;;;;;;35.08;50.37;100593.84;5076464;28;66989;-44
2023/03/31 10:35:24;;;;;;;;;;;;;;;35.05;49.85;100592.44;5076833;27;69815;-44
2023/03/31 10:37:56;;;;;;;;;;;;;;;35.01;50.22;100594.00;5078462;27;66295;-48
2023/03/31 10:40:27;;;;;;;;;;;;;;;35.01;50.09;100604.91;5079082;27;70328;-44
2023/03/31 10:43:09;;;;;;;;;;;;;;;34.97;50.07;100603.78;5082217;28;65499;-43
2023/03/31 10:45:46;;;;;;;;;;;;;;;34.94;50.08;100607.03;5079081;27;70230;-43
2023/03/31 10:48:28;;;;;;;;;;;;;;;34.91;50.11;100621.97;5074581;27;66389;-46
2023/03/31 10:51:14;;;;;;;;;;;;;;;34.87;50.59;100630.91;5079515;27;70863;-43
2023/03/31 10:53:48;;;;;;;;;;;;;;;34.86;50.26;100640.19;5079909;27;66586;-44
2023/03/31 10:56:27;;;;;;;;;;;;;;;34.83;50.75;100646.13;5076926;27;69997;-45
2023/03/31 10:59:05;;;;;;;;;;;;;;;34.81;50.92;100654.53;5081370;27;64419;-47
2023/03/31 11:01:53;;;;;;;;;;;;;;;34.80;50.52;100657.50;5077619;27;70382;-44
2023/03/31 11:04:45;;;;;;;;;;;;;;;34.75;50.77;100654.75;5075620;27;65508;-44
2023/03/31 11:07:32;;;;;;;;;;;;;;;34.73;50.81;100659.63;5072860;27;70170;-48
2023/03/31 11:10:20;;;;;;;;;;;;;;;34.69;50.95;100672.94;5081673;27;66300;-44
2023/03/31 11:13:07;;;;;;;;;;;;;;;34.67;51.05;100675.06;5082300;27;70634;-44
2023/03/31 11:15:37;;;;;;;;;;;;;;;34.63;50.82;100676.63;5097109;27;66638;-46
2023/03/31 11:18:17;;;;;;;;;;;;;;;34.61;51.14;100684.25;5081550;27;70280;-44
2023/03/31 11:20:53;;;;;;;;;;;;;;;34.57;51.36;100692.06;5081600;27;66913;-44
2023/03/31 11:23:43;;;;;;;;;;;;;;;34.54;51.57;100698.00;5081592;27;70631;-44
2023/03/31 11:26:14;;;;;;;;;;;;;;;34.51;51.22;100692.22;5078189;27;66657;-45
2023/03/31 11:28:58;;;;;;;;;;;;;;;34.49;51.53;100692.47;5080666;28;69213;-44
2023/03/31 11:31:33;;;;;;;;;;;;;;;34.45;52.06;100699.50;5076365;28;66595;-46
2023/03/31 11:34:32;;;;;;;;;;;;;;;34.41;51.52;100698.38;5076709;27;70708;-44
2023/03/31 11:37:18;;;;;;;;;;;;;;;34.37;52.08;100702.63;5074413;27;66358;-44
2023/03/31 11:39:54;;;;;;;;;;;;;;;34.32;51.82;100705.28;5077245;27;69814;-45
2023/03/31 11:42:32;;;;;;;;;;;;;;;34.32;52.34;100718.88;5075303;27;66683;-44
2023/03/31 11:45:13;;;;;;;;;;;;;;;34.28;52.23;100725.91;5077972;27;70363;-46
2023/03/31 11:47:45;;;;;;;;;;;;;;;34.23;52.48;100730.19;5068761;27;66163;-44
2023/03/31 11:50:18;;;;;;;;;;;;;;;34.21;52.57;100726.91;5078014;27;69828;-45
2023/03/31 11:53:11;;;;;;;;;;;;;;;34.18;52.43;100732.00;5081374;27;66967;-46
2023/03/31 11:55:42;;;;;;;;;;;;;;;34.15;52.37;100737.94;5069221;27;70061;-46
2023/03/31 11:58:12;;;;;;;;;;;;;;;34.11;52.88;100737.63;5076521;27;65915;-46
2023/03/31 12:00:58;;;;;;;;;;;;;;;34.08;52.73;100743.56;5078357;27;69911;-44
2023/03/31 12:03:49;;;;;;;;;;;;;;;34.05;52.94;100744.06;5080284;27;66620;-44
2023/03/31 12:06:21;;;;;;;;;;;;;;;34.01;53.16;100753.72;5080269;27;69497;-45
2023/03/31 12:08:51;;;;;;;;;;;;;;;33.97;52.99;100768.91;5081193;27;66120;-47
2023/03/31 12:11:40;;;;;;;;;;;;;;;33.96;53.25;100778.13;5068763;27;69892;-45
2023/03/31 12:14:25;;;;;;;;;;;;;;;33.93;52.99;100778.63;5079223;27;66401;-46
2023/03/31 12:16:59;;;;;;;;;;;;;;;33.90;53.29;100784.56;5073263;27;70538;-45
2023/03/31 12:19:45;;;;;;;;;;;;;;;33.88;53.22;100795.69;5078126;27;66972;-43
2023/03/31 12:22:21;;;;;;;;;;;;;;;33.84;53.26;100789.06;5078975;27;70914;-47
2023/03/31 12:24:51;;;;;;;;;;;;;;;33.82;53.36;100785.75;5071803;27;66107;-45
2023/03/31 12:27:26;;;;;;;;;;;;;;;33.81;53.40;100803.16;5076221;27;69997;-44
2023/03/31 12:29:59;;;;;;;;;;;;;;;33.75;53.70;100799.50;5083789;27;66799;-46
2023/03/31 12:32:32;;;;;;;;;;;;;;;33.73;53.54;100804.38;5061032;27;70046;-46
2023/03/31 12:35:10;;;;;;;;;;;;;;;33.70;53.71;100802.13;5079368;27;66776;-46
2023/03/31 12:37:46;;;;;;;;;;;;;;;33.69;53.67;100827.69;5078019;27;69775;-45
2023/03/31 12:40:16;;;;;;;;;;;;;;;33.66;53.67;100839.06;5072344;27;66949;-45
2023/03/31 12:43:04;;;;;;;;;;;;;;;33.64;53.75;100834.91;5079596;27;70553;-46
2023/03/31 12:45:50;;;;;;;;;;;;;;;33.60;54.10;100837.31;5078729;27;66408;-47
2023/03/31 12:48:26;;;;;;;;;;;;;;;33.58;54.11;100839.44;5078941;27;68819;-46
2023/03/31 12:50:56;;;;;;;;;;;;;;;33.54;54.22;100843.69;5070874;28;65501;-48
2023/03/31 12:53:35;;;;;;;;;;;;;;;33.53;54.43;100844.75;5077081;27;69447;-45
2023/03/31 12:56:05;;;;;;;;;;;;;;;33.50;54.42;100861.53;5079659;27;66056;-45
2023/03/31 12:58:36;;;;;;;;;;;;;;;33.49;54.48;100859.84;5060616;28;70471;-45
2023/03/31 13:01:13;;;;;;;;;;;;;;;33.44;54.74;100862.47;5078725;27;66308;-47
2023/03/31 13:03:44;;;;;;;;;;;;;;;33.43;54.74;100860.81;5070657;27;69701;-44
2023/03/31 13:06:29;;;;;;;;;;;;;;;33.41;54.65;100868.41;5076455;27;65752;-44
2023/03/31 13:09:07;;;;;;;;;;;;;;;33.36;54.98;100869.94;5079394;27;70012;-45
2023/03/31 13:11:37;;;;;;;;;;;;;;;33.35;55.28;100875.63;5061086;27;67197;-46